sensor_id;sensor_type;location;lat;lon;timestamp;pressure;altitude;pressure_sealevel;temperature;humidity
46682;BME280;34101;53.430;-2.224;2023-06-19T00:00:56;100247.01;;;18.59;80.70
46682;BME280;34101;53.430;-2.224;2023-06-19T00:03:24;100250.75;;;18.62;80.66
46682;BME280;34101;53.430;-2.224;2023-06-19T00:05:52;100251.97;;;18.61;80.98
46682;BME280;34101;53.430;-2.224;2023-06-19T00:08:19;100249.26;;;18.46;81.09
46682;BME280;34101;53.430;-2.224;2023-06-19T00:10:48;100243.36;;;18.53;81.11
46682;BME280;34101;53.430;-2.224;2023-06-19T00:13:16;100238.82;;;18.62;81.19
46682;BME280;34101;53.430;-2.224;2023-06-19T00:15:43;100238.17;;;18.57;80.86
46682;BME280;34101;53.430;-2.224;2023-06-19T00:18:10;100230.83;;;18.57;81.17
46682;BME280;34101;53.430;-2.224;2023-06-19T00:20:38;100222.45;;;18.37;81.33
46682;BME280;34101;53.430;-2.224;2023-06-19T00:23:06;100217.17;;;18.56;81.52
46682;BME280;34101;53.430;-2.224;2023-06-19T00:25:33;100203.95;;;18.62;81.41
46682;BME280;34101;53.430;-2.224;2023-06-19T00:28:01;100202.45;;;18.72;80.80
46682;BME280;34101;53.430;-2.224;2023-06-19T00:30:29;100207.14;;;18.70;80.62
46682;BME280;34101;53.430;-2.224;2023-06-19T00:32:56;100219.70;;;18.53;80.79
46682;BME280;34101;53.430;-2.224;2023-06-19T00:35:24;100222.65;;;18.49;81.09
46682;BME280;34101;53.430;-2.224;2023-06-19T00:37:51;100221.87;;;18.52;81.03
46682;BME280;34101;53.430;-2.224;2023-06-19T00:40:26;100223.07;;;18.42;81.31
46682;BME280;34101;53.430;-2.224;2023-06-19T00:42:54;100230.97;;;18.35;81.75
46682;BME280;34101;53.430;-2.224;2023-06-19T00:45:22;100230.40;;;18.44;81.75
46682;BME280;34101;53.430;-2.224;2023-06-19T00:47:50;100235.53;;;18.23;82.17
46682;BME280;34101;53.430;-2.224;2023-06-19T00:50:18;100235.10;;;18.38;81.53
46682;BME280;34101;53.430;-2.224;2023-06-19T00:52:45;100235.81;;;18.39;81.87
46682;BME280;34101;53.430;-2.224;2023-06-19T00:55:13;100235.19;;;18.45;81.53
46682;BME280;34101;53.430;-2.224;2023-06-19T00:57:43;100233.95;;;18.52;81.07
46682;BME280;34101;53.430;-2.224;2023-06-19T01:00:12;100232.34;;;18.53;80.87
46682;BME280;34101;53.430;-2.224;2023-06-19T01:02:39;100234.79;;;18.26;80.74
46682;BME280;34101;53.430;-2.224;2023-06-19T01:05:07;100235.40;;;18.35;80.37
46682;BME280;34101;53.430;-2.224;2023-06-19T01:07:40;100234.66;;;18.40;80.07
46682;BME280;34101;53.430;-2.224;2023-06-19T01:10:13;100232.47;;;18.36;80.45
46682;BME280;34101;53.430;-2.224;2023-06-19T01:12:58;100229.47;;;18.45;79.77
46682;BME280;34101;53.430;-2.224;2023-06-19T01:15:28;100230.98;;;18.51;79.46
46682;BME280;34101;53.430;-2.224;2023-06-19T01:17:57;100233.68;;;18.57;79.76
46682;BME280;34101;53.430;-2.224;2023-06-19T01:20:26;100228.54;;;18.45;79.63
46682;BME280;34101;53.430;-2.224;2023-06-19T01:22:53;100229.89;;;18.44;79.64
46682;BME280;34101;53.430;-2.224;2023-06-19T01:25:21;100233.82;;;18.57;79.69
46682;BME280;34101;53.430;-2.224;2023-06-19T01:27:48;100230.55;;;18.58;79.64
46682;BME280;34101;53.430;-2.224;2023-06-19T01:30:16;100225.90;;;18.60;79.45
46682;BME280;34101;53.430;-2.224;2023-06-19T01:32:50;100229.74;;;18.57;79.24
46682;BME280;34101;53.430;-2.224;2023-06-19T01:35:29;100235.28;;;18.53;79.22
46682;BME280;34101;53.430;-2.224;2023-06-19T01:37:58;100237.59;;;18.58;78.49
46682;BME280;34101;53.430;-2.224;2023-06-19T01:40:26;100240.18;;;18.62;78.83
46682;BME280;34101;53.430;-2.224;2023-06-19T01:42:55;100242.10;;;18.51;78.36
46682;BME280;34101;53.430;-2.224;2023-06-19T01:45:23;100244.94;;;18.55;78.68
46682;BME280;34101;53.430;-2.224;2023-06-19T01:47:51;100246.69;;;18.41;79.05
46682;BME280;34101;53.430;-2.224;2023-06-19T01:50:21;100244.70;;;18.44;78.69
46682;BME280;34101;53.430;-2.224;2023-06-19T01:52:50;100243.70;;;18.39;78.64
46682;BME280;34101;53.430;-2.224;2023-06-19T01:55:17;100248.51;;;18.21;79.67
46682;BME280;34101;53.430;-2.224;2023-06-19T01:57:45;100245.20;;;18.35;79.36
46682;BME280;34101;53.430;-2.224;2023-06-19T02:00:13;100243.58;;;18.47;78.78
46682;BME280;34101;53.430;-2.224;2023-06-19T02:02:40;100244.94;;;18.46;78.88
46682;BME280;34101;53.430;-2.224;2023-06-19T02:05:08;100247.80;;;18.47;78.63
46682;BME280;34101;53.430;-2.224;2023-06-19T02:07:36;100249.64;;;18.56;78.31
46682;BME280;34101;53.430;-2.224;2023-06-19T02:10:04;100251.89;;;18.58;78.36
46682;BME280;34101;53.430;-2.224;2023-06-19T02:12:37;100251.46;;;18.50;77.84
46682;BME280;34101;53.430;-2.224;2023-06-19T02:15:06;100254.84;;;18.56;78.42
46682;BME280;34101;53.430;-2.224;2023-06-19T02:17:34;100249.14;;;18.57;78.48
46682;BME280;34101;53.430;-2.224;2023-06-19T02:20:02;100251.53;;;18.50;77.93
46682;BME280;34101;53.430;-2.224;2023-06-19T02:22:30;100254.33;;;18.48;78.27
46682;BME280;34101;53.430;-2.224;2023-06-19T02:24:58;100258.13;;;18.39;78.66
46682;BME280;34101;53.430;-2.224;2023-06-19T02:27:25;100262.63;;;18.41;79.08
46682;BME280;34101;53.430;-2.224;2023-06-19T02:29:52;100266.29;;;18.22;79.27
46682;BME280;34101;53.430;-2.224;2023-06-19T02:32:19;100266.53;;;18.22;79.26
46682;BME280;34101;53.430;-2.224;2023-06-19T02:34:47;100259.99;;;18.29;79.37
46682;BME280;34101;53.430;-2.224;2023-06-19T02:37:19;100264.58;;;18.33;79.22
46682;BME280;34101;53.430;-2.224;2023-06-19T02:39:46;100267.18;;;18.25;79.39
46682;BME280;34101;53.430;-2.224;2023-06-19T02:42:14;100266.28;;;18.04;79.41
46682;BME280;34101;53.430;-2.224;2023-06-19T02:44:42;100266.30;;;17.97;80.21
46682;BME280;34101;53.430;-2.224;2023-06-19T02:47:10;100261.59;;;18.00;80.13
46682;BME280;34101;53.430;-2.224;2023-06-19T02:49:38;100261.67;;;17.90;80.61
46682;BME280;34101;53.430;-2.224;2023-06-19T02:52:08;100255.32;;;17.88;80.50
46682;BME280;34101;53.430;-2.224;2023-06-19T02:54:35;100252.62;;;17.91;80.69
46682;BME280;34101;53.430;-2.224;2023-06-19T02:57:04;100255.57;;;17.95;80.52
46682;BME280;34101;53.430;-2.224;2023-06-19T02:59:31;100260.19;;;17.99;80.13
46682;BME280;34101;53.430;-2.224;2023-06-19T03:01:58;100258.68;;;18.00;79.77
46682;BME280;34101;53.430;-2.224;2023-06-19T03:04:26;100258.92;;;18.02;80.25
46682;BME280;34101;53.430;-2.224;2023-06-19T03:06:53;100257.77;;;18.01;80.09
46682;BME280;34101;53.430;-2.224;2023-06-19T03:09:21;100261.29;;;18.02;79.65
46682;BME280;34101;53.430;-2.224;2023-06-19T03:11:49;100258.59;;;18.01;79.88
46682;BME280;34101;53.430;-2.224;2023-06-19T03:14:16;100259.41;;;17.90;79.40
46682;BME280;34101;53.430;-2.224;2023-06-19T03:16:43;100261.01;;;17.92;80.33
46682;BME280;34101;53.430;-2.224;2023-06-19T03:19:11;100261.76;;;17.96;79.73
46682;BME280;34101;53.430;-2.224;2023-06-19T03:21:39;100262.15;;;17.91;79.69
46682;BME280;34101;53.430;-2.224;2023-06-19T03:24:06;100263.25;;;17.89;79.84
46682;BME280;34101;53.430;-2.224;2023-06-19T03:26:34;100259.36;;;17.84;79.78
46682;BME280;34101;53.430;-2.224;2023-06-19T03:29:02;100261.04;;;17.76;79.86
46682;BME280;34101;53.430;-2.224;2023-06-19T03:31:29;100262.22;;;17.75;79.89
46682;BME280;34101;53.430;-2.224;2023-06-19T03:33:56;100259.97;;;17.69;79.72
46682;BME280;34101;53.430;-2.224;2023-06-19T03:36:24;100259.17;;;17.60;80.30
46682;BME280;34101;53.430;-2.224;2023-06-19T03:38:53;100258.34;;;17.59;80.57
46682;BME280;34101;53.430;-2.224;2023-06-19T03:41:20;100252.45;;;17.59;80.46
46682;BME280;34101;53.430;-2.224;2023-06-19T03:43:47;100249.48;;;17.56;80.37
46682;BME280;34101;53.430;-2.224;2023-06-19T03:46:15;100249.84;;;17.54;80.10
46682;BME280;34101;53.430;-2.224;2023-06-19T03:48:43;100252.57;;;17.47;80.62
46682;BME280;34101;53.430;-2.224;2023-06-19T03:51:10;100252.38;;;17.44;80.63
46682;BME280;34101;53.430;-2.224;2023-06-19T03:53:37;100251.08;;;17.40;80.58
46682;BME280;34101;53.430;-2.224;2023-06-19T03:56:05;100246.50;;;17.35;80.74
46682;BME280;34101;53.430;-2.224;2023-06-19T03:58:33;100243.37;;;17.27;80.81
46682;BME280;34101;53.430;-2.224;2023-06-19T04:01:00;100242.70;;;17.29;80.86
46682;BME280;34101;53.430;-2.224;2023-06-19T04:03:28;100241.03;;;17.28;80.85
46682;BME280;34101;53.430;-2.224;2023-06-19T04:05:55;100246.33;;;17.26;81.03
46682;BME280;34101;53.430;-2.224;2023-06-19T04:08:22;100249.51;;;17.27;81.06
46682;BME280;34101;53.430;-2.224;2023-06-19T04:10:50;100247.21;;;17.24;80.92
46682;BME280;34101;53.430;-2.224;2023-06-19T04:13:23;100248.08;;;17.22;80.96
46682;BME280;34101;53.430;-2.224;2023-06-19T04:15:51;100249.45;;;17.18;80.83
46682;BME280;34101;53.430;-2.224;2023-06-19T04:18:18;100250.44;;;17.15;81.05
46682;BME280;34101;53.430;-2.224;2023-06-19T04:20:45;100255.40;;;17.15;81.13
46682;BME280;34101;53.430;-2.224;2023-06-19T04:23:13;100260.48;;;17.14;81.12
46682;BME280;34101;53.430;-2.224;2023-06-19T04:25:40;100265.46;;;17.11;81.19
46682;BME280;34101;53.430;-2.224;2023-06-19T04:28:08;100264.72;;;17.11;81.02
46682;BME280;34101;53.430;-2.224;2023-06-19T04:30:35;100267.96;;;17.09;81.15
46682;BME280;34101;53.430;-2.224;2023-06-19T04:33:02;100275.92;;;17.09;81.25
46682;BME280;34101;53.430;-2.224;2023-06-19T04:35:30;100280.77;;;17.07;81.17
46682;BME280;34101;53.430;-2.224;2023-06-19T04:37:58;100286.93;;;17.06;81.02
46682;BME280;34101;53.430;-2.224;2023-06-19T04:40:30;100291.89;;;17.07;81.38
46682;BME280;34101;53.430;-2.224;2023-06-19T04:42:58;100296.98;;;17.05;81.38
46682;BME280;34101;53.430;-2.224;2023-06-19T04:45:25;100299.52;;;17.11;81.22
46682;BME280;34101;53.430;-2.224;2023-06-19T04:47:52;100303.87;;;17.14;81.11
46682;BME280;34101;53.430;-2.224;2023-06-19T04:50:20;100302.48;;;17.15;80.91
46682;BME280;34101;53.430;-2.224;2023-06-19T04:52:47;100306.42;;;17.13;80.83
46682;BME280;34101;53.430;-2.224;2023-06-19T04:55:14;100305.07;;;17.11;80.99
46682;BME280;34101;53.430;-2.224;2023-06-19T04:57:42;100309.96;;;17.10;80.70
46682;BME280;34101;53.430;-2.224;2023-06-19T05:00:10;100314.87;;;17.07;80.96
46682;BME280;34101;53.430;-2.224;2023-06-19T05:02:38;100323.76;;;17.09;80.67
46682;BME280;34101;53.430;-2.224;2023-06-19T05:05:06;100324.42;;;17.04;80.81
46682;BME280;34101;53.430;-2.224;2023-06-19T05:07:34;100319.77;;;17.09;80.60
46682;BME280;34101;53.430;-2.224;2023-06-19T05:10:02;100323.09;;;17.07;80.49
46682;BME280;34101;53.430;-2.224;2023-06-19T05:12:31;100325.14;;;17.06;80.79
46682;BME280;34101;53.430;-2.224;2023-06-19T05:14:58;100327.17;;;17.09;80.69
46682;BME280;34101;53.430;-2.224;2023-06-19T05:17:25;100323.24;;;17.11;80.30
46682;BME280;34101;53.430;-2.224;2023-06-19T05:19:53;100324.84;;;17.10;80.48
46682;BME280;34101;53.430;-2.224;2023-06-19T05:22:21;100328.80;;;17.00;80.55
46682;BME280;34101;53.430;-2.224;2023-06-19T05:24:48;100327.47;;;16.99;80.88
46682;BME280;34101;53.430;-2.224;2023-06-19T05:27:15;100325.89;;;17.07;80.63
46682;BME280;34101;53.430;-2.224;2023-06-19T05:29:43;100328.15;;;17.13;80.52
46682;BME280;34101;53.430;-2.224;2023-06-19T05:32:11;100328.79;;;17.16;80.35
46682;BME280;34101;53.430;-2.224;2023-06-19T05:34:38;100330.87;;;17.20;79.94
46682;BME280;34101;53.430;-2.224;2023-06-19T05:37:06;100336.34;;;17.17;80.25
46682;BME280;34101;53.430;-2.224;2023-06-19T05:39:34;100332.18;;;17.21;79.80
46682;BME280;34101;53.430;-2.224;2023-06-19T05:42:02;100335.59;;;17.25;79.70
46682;BME280;34101;53.430;-2.224;2023-06-19T05:44:30;100335.69;;;17.29;80.12
46682;BME280;34101;53.430;-2.224;2023-06-19T05:46:57;100335.81;;;17.35;79.87
46682;BME280;34101;53.430;-2.224;2023-06-19T05:49:29;100337.46;;;17.38;79.69
46682;BME280;34101;53.430;-2.224;2023-06-19T05:51:56;100345.03;;;17.43;79.48
46682;BME280;34101;53.430;-2.224;2023-06-19T05:54:25;100346.77;;;17.47;78.82
46682;BME280;34101;53.430;-2.224;2023-06-19T05:56:52;100341.28;;;17.39;78.48
46682;BME280;34101;53.430;-2.224;2023-06-19T05:59:19;100339.90;;;17.49;78.10
46682;BME280;34101;53.430;-2.224;2023-06-19T06:01:47;100340.58;;;17.41;78.31
46682;BME280;34101;53.430;-2.224;2023-06-19T06:04:14;100338.58;;;17.48;78.25
46682;BME280;34101;53.430;-2.224;2023-06-19T06:06:42;100338.92;;;17.57;78.01
46682;BME280;34101;53.430;-2.224;2023-06-19T06:09:09;100342.38;;;17.57;77.87
46682;BME280;34101;53.430;-2.224;2023-06-19T06:11:37;100343.81;;;17.64;77.61
46682;BME280;34101;53.430;-2.224;2023-06-19T06:14:05;100349.58;;;17.76;77.76
46682;BME280;34101;53.430;-2.224;2023-06-19T06:16:32;100355.48;;;17.91;77.60
46682;BME280;34101;53.430;-2.224;2023-06-19T06:19:00;100359.36;;;18.08;77.34
46682;BME280;34101;53.430;-2.224;2023-06-19T06:21:27;100359.80;;;18.22;76.78
46682;BME280;34101;53.430;-2.224;2023-06-19T06:23:54;100362.98;;;18.36;76.00
46682;BME280;34101;53.430;-2.224;2023-06-19T06:26:21;100367.72;;;18.39;75.12
46682;BME280;34101;53.430;-2.224;2023-06-19T06:28:49;100371.06;;;18.52;74.87
46682;BME280;34101;53.430;-2.224;2023-06-19T06:31:16;100376.37;;;18.56;74.79
46682;BME280;34101;53.430;-2.224;2023-06-19T06:33:44;100372.22;;;18.65;74.29
46682;BME280;34101;53.430;-2.224;2023-06-19T06:36:14;100377.19;;;18.79;74.00
46682;BME280;34101;53.430;-2.224;2023-06-19T06:38:41;100381.67;;;18.79;73.30
46682;BME280;34101;53.430;-2.224;2023-06-19T06:41:13;100387.30;;;18.87;72.91
46682;BME280;34101;53.430;-2.224;2023-06-19T06:43:41;100391.12;;;18.92;73.46
46682;BME280;34101;53.430;-2.224;2023-06-19T06:46:09;100391.33;;;18.77;73.25
46682;BME280;34101;53.430;-2.224;2023-06-19T06:48:37;100395.48;;;18.53;74.04
46682;BME280;34101;53.430;-2.224;2023-06-19T06:51:05;100399.22;;;18.74;73.29
46682;BME280;34101;53.430;-2.224;2023-06-19T06:53:32;100396.35;;;18.86;72.15
46682;BME280;34101;53.430;-2.224;2023-06-19T06:56:00;100395.44;;;18.91;72.10
46682;BME280;34101;53.430;-2.224;2023-06-19T06:58:27;100399.71;;;18.76;72.93
46682;BME280;34101;53.430;-2.224;2023-06-19T07:00:54;100397.53;;;19.02;72.61
46682;BME280;34101;53.430;-2.224;2023-06-19T07:03:22;100397.05;;;19.18;71.87
46682;BME280;34101;53.430;-2.224;2023-06-19T07:05:49;100398.32;;;19.27;71.19
46682;BME280;34101;53.430;-2.224;2023-06-19T07:08:16;100399.81;;;19.26;71.11
46682;BME280;34101;53.430;-2.224;2023-06-19T07:10:44;100400.55;;;18.93;72.76
46682;BME280;34101;53.430;-2.224;2023-06-19T07:13:16;100399.18;;;19.23;71.64
46682;BME280;34101;53.430;-2.224;2023-06-19T07:15:44;100398.76;;;19.39;71.12
46682;BME280;34101;53.430;-2.224;2023-06-19T07:18:11;100400.76;;;19.55;71.05
46682;BME280;34101;53.430;-2.224;2023-06-19T07:20:39;100401.73;;;19.50;70.71
46682;BME280;34101;53.430;-2.224;2023-06-19T07:23:06;100402.45;;;19.56;70.66
46682;BME280;34101;53.430;-2.224;2023-06-19T07:25:38;100394.62;;;19.68;70.30
46682;BME280;34101;53.430;-2.224;2023-06-19T07:28:06;100394.51;;;19.84;69.50
46682;BME280;34101;53.430;-2.224;2023-06-19T07:30:33;100390.60;;;19.80;69.76
46682;BME280;34101;53.430;-2.224;2023-06-19T07:33:05;100388.71;;;20.12;68.86
46682;BME280;34101;53.430;-2.224;2023-06-19T07:35:32;100386.79;;;20.25;67.78
46682;BME280;34101;53.430;-2.224;2023-06-19T07:38:00;100389.65;;;20.30;68.73
46682;BME280;34101;53.430;-2.224;2023-06-19T07:40:27;100393.33;;;20.31;67.18
46682;BME280;34101;53.430;-2.224;2023-06-19T07:43:00;100393.82;;;20.04;67.64
46682;BME280;34101;53.430;-2.224;2023-06-19T07:45:28;100394.42;;;20.25;67.39
46682;BME280;34101;53.430;-2.224;2023-06-19T07:47:55;100390.59;;;20.25;66.86
46682;BME280;34101;53.430;-2.224;2023-06-19T07:50:22;100392.96;;;20.27;66.97
46682;BME280;34101;53.430;-2.224;2023-06-19T07:52:49;100394.04;;;19.74;67.70
46682;BME280;34101;53.430;-2.224;2023-06-19T07:55:17;100386.88;;;20.59;67.41
46682;BME280;34101;53.430;-2.224;2023-06-19T07:57:45;100388.00;;;20.82;63.49
46682;BME280;34101;53.430;-2.224;2023-06-19T08:00:13;100388.98;;;20.98;64.56
46682;BME280;34101;53.430;-2.224;2023-06-19T08:02:41;100387.14;;;21.33;61.89
46682;BME280;34101;53.430;-2.224;2023-06-19T08:05:09;100388.93;;;20.62;64.45
46682;BME280;34101;53.430;-2.224;2023-06-19T08:07:37;100386.48;;;20.55;64.82
46682;BME280;34101;53.430;-2.224;2023-06-19T08:10:06;100389.22;;;21.32;62.13
46682;BME280;34101;53.430;-2.224;2023-06-19T08:12:34;100389.30;;;20.80;63.18
46682;BME280;34101;53.430;-2.224;2023-06-19T08:15:02;100382.86;;;21.40;61.72
46682;BME280;34101;53.430;-2.224;2023-06-19T08:17:29;100383.69;;;21.94;60.41
46682;BME280;34101;53.430;-2.224;2023-06-19T08:19:56;100388.71;;;22.13;59.26
46682;BME280;34101;53.430;-2.224;2023-06-19T08:22:24;100388.87;;;22.38;58.33
46682;BME280;34101;53.430;-2.224;2023-06-19T08:24:51;100389.29;;;22.93;56.76
46682;BME280;34101;53.430;-2.224;2023-06-19T08:27:19;100378.90;;;23.45;54.90
46682;BME280;34101;53.430;-2.224;2023-06-19T08:29:46;100383.10;;;23.14;55.81
46682;BME280;34101;53.430;-2.224;2023-06-19T08:32:14;100384.73;;;23.71;52.76
46682;BME280;34101;53.430;-2.224;2023-06-19T08:34:41;100382.86;;;23.41;54.25
46682;BME280;34101;53.430;-2.224;2023-06-19T08:37:08;100375.26;;;24.47;49.96
46682;BME280;34101;53.430;-2.224;2023-06-19T08:39:36;100378.48;;;24.68;49.55
46682;BME280;34101;53.430;-2.224;2023-06-19T08:42:05;100378.34;;;25.21;49.87
46682;BME280;34101;53.430;-2.224;2023-06-19T08:44:33;100380.96;;;24.71;50.08
46682;BME280;34101;53.430;-2.224;2023-06-19T08:47:01;100390.16;;;25.13;47.92
46682;BME280;34101;53.430;-2.224;2023-06-19T08:49:29;100395.02;;;24.46;50.28
46682;BME280;34101;53.430;-2.224;2023-06-19T08:51:56;100395.38;;;23.84;51.20
46682;BME280;34101;53.430;-2.224;2023-06-19T08:54:24;100400.79;;;24.32;49.75
46682;BME280;34101;53.430;-2.224;2023-06-19T08:56:51;100393.65;;;23.62;51.56
46682;BME280;34101;53.430;-2.224;2023-06-19T08:59:20;100395.88;;;23.57;52.17
46682;BME280;34101;53.430;-2.224;2023-06-19T09:01:48;100395.70;;;23.51;53.98
46682;BME280;34101;53.430;-2.224;2023-06-19T09:04:15;100391.08;;;24.07;50.46
46682;BME280;34101;53.430;-2.224;2023-06-19T09:06:48;100390.07;;;24.05;49.67
46682;BME280;34101;53.430;-2.224;2023-06-19T09:09:15;100390.09;;;24.27;49.68
46682;BME280;34101;53.430;-2.224;2023-06-19T09:11:43;100395.05;;;24.49;49.33
46682;BME280;34101;53.430;-2.224;2023-06-19T09:14:11;100385.53;;;25.21;46.45
46682;BME280;34101;53.430;-2.224;2023-06-19T09:16:39;100387.49;;;25.06;46.07
46682;BME280;34101;53.430;-2.224;2023-06-19T09:19:07;100385.39;;;25.50;46.98
46682;BME280;34101;53.430;-2.224;2023-06-19T09:21:36;100391.62;;;24.74;46.65
46682;BME280;34101;53.430;-2.224;2023-06-19T09:24:05;100390.59;;;24.64;47.62
46682;BME280;34101;53.430;-2.224;2023-06-19T09:26:33;100382.97;;;24.58;47.52
46682;BME280;34101;53.430;-2.224;2023-06-19T09:29:10;100393.40;;;24.44;48.19
46682;BME280;34101;53.430;-2.224;2023-06-19T09:31:38;100384.87;;;25.06;46.85
46682;BME280;34101;53.430;-2.224;2023-06-19T09:34:06;100385.13;;;25.01;46.10
46682;BME280;34101;53.430;-2.224;2023-06-19T09:36:33;100386.93;;;24.98;46.78
46682;BME280;34101;53.430;-2.224;2023-06-19T09:39:03;100381.31;;;25.93;44.46
46682;BME280;34101;53.430;-2.224;2023-06-19T09:41:30;100385.03;;;25.47;44.87
46682;BME280;34101;53.430;-2.224;2023-06-19T09:43:59;100385.17;;;26.12;43.19
46682;BME280;34101;53.430;-2.224;2023-06-19T09:46:30;100382.80;;;26.54;43.55
46682;BME280;34101;53.430;-2.224;2023-06-19T09:49:00;100388.42;;;26.23;43.77
46682;BME280;34101;53.430;-2.224;2023-06-19T09:51:31;100392.81;;;26.70;42.52
46682;BME280;34101;53.430;-2.224;2023-06-19T09:54:05;100392.78;;;26.22;43.82
46682;BME280;34101;53.430;-2.224;2023-06-19T09:56:33;100394.40;;;26.39;42.12
46682;BME280;34101;53.430;-2.224;2023-06-19T09:59:01;100397.77;;;25.10;45.68
46682;BME280;34101;53.430;-2.224;2023-06-19T10:01:31;100396.51;;;25.47;46.31
46682;BME280;34101;53.430;-2.224;2023-06-19T10:04:05;100397.08;;;25.90;43.75
46682;BME280;34101;53.430;-2.224;2023-06-19T10:06:33;100401.87;;;24.89;45.06
46682;BME280;34101;53.430;-2.224;2023-06-19T10:09:15;100399.28;;;24.54;46.07
46682;BME280;34101;53.430;-2.224;2023-06-19T10:11:47;100408.24;;;24.04;47.38
46682;BME280;34101;53.430;-2.224;2023-06-19T10:14:14;100404.98;;;25.38;44.38
46682;BME280;34101;53.430;-2.224;2023-06-19T10:16:41;100402.80;;;25.57;44.28
46682;BME280;34101;53.430;-2.224;2023-06-19T10:19:13;100407.69;;;25.97;43.32
46682;BME280;34101;53.430;-2.224;2023-06-19T10:21:45;100403.84;;;26.81;41.76
46682;BME280;34101;53.430;-2.224;2023-06-19T10:24:15;100412.39;;;26.61;40.24
46682;BME280;34101;53.430;-2.224;2023-06-19T10:26:42;100401.53;;;26.86;41.13
46682;BME280;34101;53.430;-2.224;2023-06-19T10:29:14;100402.37;;;26.36;42.52
46682;BME280;34101;53.430;-2.224;2023-06-19T10:31:42;100405.93;;;26.80;41.55
46682;BME280;34101;53.430;-2.224;2023-06-19T10:34:09;100405.11;;;25.97;42.98
46682;BME280;34101;53.430;-2.224;2023-06-19T10:36:36;100407.15;;;26.17;42.81
46682;BME280;34101;53.430;-2.224;2023-06-19T10:39:04;100410.18;;;26.31;42.77
46682;BME280;34101;53.430;-2.224;2023-06-19T10:41:31;100411.20;;;26.95;41.68
46682;BME280;34101;53.430;-2.224;2023-06-19T10:44:01;100415.20;;;27.34;39.38
46682;BME280;34101;53.430;-2.224;2023-06-19T10:46:30;100407.24;;;27.77;38.40
46682;BME280;34101;53.430;-2.224;2023-06-19T10:48:58;100410.10;;;28.05;37.55
46682;BME280;34101;53.430;-2.224;2023-06-19T10:51:26;100404.52;;;27.59;38.43
46682;BME280;34101;53.430;-2.224;2023-06-19T10:53:54;100409.02;;;28.18;37.38
46682;BME280;34101;53.430;-2.224;2023-06-19T10:56:23;100406.60;;;28.32;36.32
46682;BME280;34101;53.430;-2.224;2023-06-19T10:58:57;100398.43;;;27.69;37.47
46682;BME280;34101;53.430;-2.224;2023-06-19T11:01:32;100386.39;;;28.83;35.55
46682;BME280;34101;53.430;-2.224;2023-06-19T11:03:59;100390.80;;;29.26;34.53
46682;BME280;34101;53.430;-2.224;2023-06-19T11:06:28;100392.25;;;28.72;35.48
46682;BME280;34101;53.430;-2.224;2023-06-19T11:09:03;100402.18;;;28.15;36.20
46682;BME280;34101;53.430;-2.224;2023-06-19T11:11:40;100399.67;;;26.90;38.34
46682;BME280;34101;53.430;-2.224;2023-06-19T11:14:09;100390.97;;;26.51;39.90
46682;BME280;34101;53.430;-2.224;2023-06-19T11:16:39;100395.72;;;25.41;41.16
46682;BME280;34101;53.430;-2.224;2023-06-19T11:19:08;100391.77;;;25.44;41.98
46682;BME280;34101;53.430;-2.224;2023-06-19T11:21:36;100388.56;;;25.27;41.81
46682;BME280;34101;53.430;-2.224;2023-06-19T11:24:06;100398.78;;;25.24;42.00
46682;BME280;34101;53.430;-2.224;2023-06-19T11:26:37;100394.77;;;24.51;44.72
46682;BME280;34101;53.430;-2.224;2023-06-19T11:29:14;100397.00;;;24.24;45.02
46682;BME280;34101;53.430;-2.224;2023-06-19T11:31:42;100396.33;;;23.86;45.91
46682;BME280;34101;53.430;-2.224;2023-06-19T11:34:10;100403.65;;;23.58;46.82
46682;BME280;34101;53.430;-2.224;2023-06-19T11:36:38;100397.35;;;23.93;46.82
46682;BME280;34101;53.430;-2.224;2023-06-19T11:39:10;100394.64;;;24.06;46.04
46682;BME280;34101;53.430;-2.224;2023-06-19T11:41:38;100397.48;;;24.43;45.34
46682;BME280;34101;53.430;-2.224;2023-06-19T11:44:07;100390.68;;;25.73;43.54
46682;BME280;34101;53.430;-2.224;2023-06-19T11:46:35;100388.45;;;26.07;41.77
46682;BME280;34101;53.430;-2.224;2023-06-19T11:49:12;100388.43;;;26.52;40.80
46682;BME280;34101;53.430;-2.224;2023-06-19T11:51:40;100389.20;;;27.19;40.12
46682;BME280;34101;53.430;-2.224;2023-06-19T11:54:10;100390.12;;;28.22;36.93
46682;BME280;34101;53.430;-2.224;2023-06-19T11:56:39;100394.99;;;28.14;37.66
46682;BME280;34101;53.430;-2.224;2023-06-19T11:59:08;100395.52;;;27.78;36.49
46682;BME280;34101;53.430;-2.224;2023-06-19T12:01:36;100396.35;;;27.52;38.05
46682;BME280;34101;53.430;-2.224;2023-06-19T12:04:11;100391.27;;;26.96;38.33
46682;BME280;34101;53.430;-2.224;2023-06-19T12:06:38;100393.85;;;27.18;38.55
46682;BME280;34101;53.430;-2.224;2023-06-19T12:09:05;100389.64;;;26.75;38.73
46682;BME280;34101;53.430;-2.224;2023-06-19T12:11:33;100384.96;;;26.88;39.04
46682;BME280;34101;53.430;-2.224;2023-06-19T12:14:01;100381.11;;;27.39;38.46
46682;BME280;34101;53.430;-2.224;2023-06-19T12:16:28;100384.66;;;27.81;37.28
46682;BME280;34101;53.430;-2.224;2023-06-19T12:19:00;100377.10;;;27.28;37.88
46682;BME280;34101;53.430;-2.224;2023-06-19T12:21:28;100377.00;;;26.98;37.71
46682;BME280;34101;53.430;-2.224;2023-06-19T12:23:56;100385.70;;;26.74;38.92
46682;BME280;34101;53.430;-2.224;2023-06-19T12:26:23;100394.92;;;26.14;39.83
46682;BME280;34101;53.430;-2.224;2023-06-19T12:28:51;100402.31;;;25.28;41.53
46682;BME280;34101;53.430;-2.224;2023-06-19T12:31:18;100400.85;;;25.14;41.29
46682;BME280;34101;53.430;-2.224;2023-06-19T12:33:45;100405.25;;;25.39;40.78
46682;BME280;34101;53.430;-2.224;2023-06-19T12:36:13;100407.72;;;25.17;41.00
46682;BME280;34101;53.430;-2.224;2023-06-19T12:38:41;100409.63;;;25.48;40.82
46682;BME280;34101;53.430;-2.224;2023-06-19T12:41:09;100411.89;;;26.07;42.36
46682;BME280;34101;53.430;-2.224;2023-06-19T12:43:37;100412.22;;;25.74;44.84
46682;BME280;34101;53.430;-2.224;2023-06-19T12:46:04;100415.43;;;25.61;44.31